Lennep, Montana
Current Conditions -  °F | °C
As of 9:53 PM on Monday 20 Oct 2014 (Local Time) from KLVM Reporting Station
Clear Clear  
Wind Chill: 67°   Ceiling: Unl
Heat Index: 67°   Visibility: 10mi
Dew Point: 33°   Wind: 13mph
Humidity: 28%   Direction: 270°W
Pressure: 29.85"   Gusts: NA
Location:  46.4682°N, 110.512°W
Report Text: KLVM 210353Z AUTO 27011KT 10SM CLR 19/01 A2985 RMK AO2 SLP074 T01940006
Loading
Personal Weather Stations






























Interactive Weather Map
Tropical Storm Tracking
New forecast layout! Learn more

10-Day Weather Forecast

Advertisements
Track Severe Weather on mobile